createdAt,value
2019-03-24T00:01:02.431Z,50.55
2019-03-24T00:03:30.904Z,51.23
2019-03-24T00:05:59.642Z,49.58
2019-03-24T00:08:47.457Z,50.50
2019-03-24T00:11:16.360Z,49.03
2019-03-24T00:13:44.835Z,51.37
2019-03-24T00:16:13.647Z,50.92
2019-03-24T00:18:49.798Z,49.83
2019-03-24T00:21:18.600Z,49.85
2019-03-24T00:23:47.083Z,51.83
2019-03-24T00:26:15.539Z,51.25
2019-03-24T00:28:44.360Z,52.10
2019-03-24T00:31:13.156Z,51.77
2019-03-24T00:33:41.946Z,53.75
2019-03-24T00:36:10.744Z,50.48
2019-03-24T00:38:39.631Z,50.35
2019-03-24T00:41:08.435Z,50.95
2019-03-24T00:43:37.319Z,51.20
2019-03-24T00:46:05.781Z,52.20
2019-03-24T00:48:34.407Z,51.73
2019-03-24T00:51:02.936Z,53.58
2019-03-24T00:53:31.411Z,52.60
2019-03-24T00:56:00.160Z,53.42
2019-03-24T00:58:28.955Z,52.35
2019-03-24T01:00:57.423Z,53.90
2019-03-24T01:03:26.227Z,50.83
2019-03-24T01:05:54.754Z,52.13
2019-03-24T01:08:23.507Z,55.25
2019-03-24T01:10:52.304Z,54.95
2019-03-24T01:13:20.770Z,51.60
2019-03-24T01:15:49.412Z,53.33
2019-03-24T01:18:17.875Z,54.25
2019-03-24T01:20:46.660Z,53.38
2019-03-24T01:23:15.116Z,54.67
2019-03-24T01:25:43.596Z,55.98
2019-03-24T01:28:12.054Z,52.95
2019-03-24T01:30:40.531Z,55.03
2019-03-24T01:33:09.006Z,53.52
2019-03-24T01:35:37.482Z,56.80
2019-03-24T01:38:05.968Z,56.13
2019-03-24T01:40:34.507Z,53.45
2019-03-24T01:43:02.964Z,54.33
2019-03-24T01:45:31.446Z,52.03
2019-03-24T01:48:00.204Z,52.27
2019-03-24T01:50:28.679Z,54.65
2019-03-24T01:52:57.479Z,57.65
2019-03-24T01:55:26.275Z,54.50
2019-03-24T01:57:55.071Z,55.15
2019-03-24T02:00:23.859Z,55.55
2019-03-24T02:02:52.315Z,54.45
2019-03-24T02:05:20.786Z,56.02
2019-03-24T02:07:49.247Z,58.28
2019-03-24T02:10:17.891Z,60.08
2019-03-24T02:12:46.703Z,58.63
2019-03-24T02:15:15.600Z,56.98
2019-03-24T02:17:44.059Z,57.50
2019-03-24T02:20:13.070Z,56.80
2019-03-24T02:22:41.875Z,56.70
2019-03-24T02:25:10.420Z,58.08
2019-03-24T02:27:39.251Z,60.08
2019-03-24T02:30:08.480Z,58.68
2019-03-24T02:32:37.357Z,61.23
2019-03-24T02:35:07.340Z,60.43
2019-03-24T02:37:36.067Z,60.58
2019-03-24T02:40:09.169Z,59.30
2019-03-24T02:42:37.718Z,56.18
2019-03-24T02:45:07.301Z,59.15
2019-03-24T02:47:35.843Z,59.83
2019-03-24T02:50:07.090Z,61.70
2019-03-24T02:52:35.916Z,60.78
2019-03-24T02:55:06.650Z,62.03
2019-03-24T02:57:35.515Z,61.50
2019-03-24T03:00:06.538Z,62.38
2019-03-24T03:02:35.136Z,58.38
2019-03-24T03:05:05.817Z,63.30
2019-03-24T03:07:34.679Z,63.92
2019-03-24T03:10:04.575Z,63.02
2019-03-24T03:12:33.064Z,62.58
2019-03-24T03:15:01.660Z,63.90
2019-03-24T03:17:30.136Z,66.47
2019-03-24T03:19:58.951Z,64.95
2019-03-24T03:22:27.494Z,64.30
2019-03-24T03:24:56.023Z,61.18
2019-03-24T03:27:24.519Z,63.73
2019-03-24T03:29:53.039Z,62.43
2019-03-24T03:32:21.791Z,64.30
2019-03-24T03:34:50.319Z,63.75
2019-03-24T03:37:18.874Z,64.85
2019-03-24T03:39:47.406Z,65.87
2019-03-24T03:42:16.237Z,63.65
2019-03-24T03:44:45.030Z,69.53
2019-03-24T03:47:13.515Z,66.50
2019-03-24T03:49:42.039Z,67.90
2019-03-24T03:52:10.907Z,68.35
2019-03-24T03:54:39.443Z,62.98
2019-03-24T03:57:07.988Z,66.87
2019-03-24T03:59:36.440Z,65.87
2019-03-24T04:02:04.924Z,69.53
2019-03-24T04:04:33.462Z,65.47
2019-03-24T04:07:01.947Z,71.80
2019-03-24T04:09:30.809Z,68.17
2019-03-24T04:11:59.284Z,66.55
2019-03-24T04:14:28.093Z,70.70
2019-03-24T04:17:07.198Z,70.95
2019-03-24T04:19:27.415Z,64.87
2019-03-24T04:21:55.891Z,68.70
2019-03-24T04:24:24.347Z,70.90
2019-03-24T04:26:53.185Z,71.87
2019-03-24T04:29:21.716Z,67.95
2019-03-24T04:31:50.207Z,72.32
2019-03-24T04:34:18.728Z,70.97
2019-03-24T04:36:47.538Z,71.55
2019-03-24T04:39:16.066Z,68.55
2019-03-24T04:41:44.544Z,69.12
2019-03-24T04:44:12.999Z,73.22
2019-03-24T04:46:41.587Z,70.47
2019-03-24T04:49:10.045Z,72.35
2019-03-24T04:51:38.519Z,70.83
2019-03-24T04:54:07.343Z,70.52
2019-03-24T04:56:35.806Z,72.40
2019-03-24T04:59:04.620Z,72.47
2019-03-24T05:01:33.095Z,75.85
2019-03-24T05:04:01.555Z,78.35
2019-03-24T05:06:30.394Z,76.77
2019-03-24T05:08:59.386Z,75.90
2019-03-24T05:11:28.179Z,76.95
2019-03-24T05:13:56.657Z,77.12
2019-03-24T05:16:25.184Z,82.53
2019-03-24T05:18:53.663Z,81.60
2019-03-24T05:21:22.119Z,77.53
2019-03-24T05:23:50.599Z,82.53
2019-03-24T05:26:19.050Z,78.50
2019-03-24T05:28:47.527Z,83.92
2019-03-24T05:31:16.366Z,81.08
2019-03-24T05:33:45.163Z,84.58
2019-03-24T05:36:13.955Z,75.45
2019-03-24T05:38:42.850Z,82.85
2019-03-24T05:41:12.039Z,85.38
2019-03-24T05:43:40.702Z,79.82
2019-03-24T05:46:09.539Z,80.10
2019-03-24T05:48:38.327Z,84.22
2019-03-24T05:51:07.124Z,86.42
2019-03-24T05:53:35.595Z,73.33
2019-03-24T05:56:04.403Z,75.55
2019-03-24T05:58:33.191Z,80.25
2019-03-24T06:01:01.987Z,78.40
2019-03-24T06:03:30.783Z,75.20
2019-03-24T06:05:59.243Z,77.25
2019-03-24T06:08:28.055Z,74.00
2019-03-24T06:10:56.772Z,72.08
2019-03-24T06:13:25.248Z,69.53
2019-03-24T06:15:53.704Z,71.65
2019-03-24T06:18:22.515Z,74.65
2019-03-24T06:20:50.975Z,67.72
2019-03-24T06:23:19.720Z,67.12
2019-03-24T06:25:48.174Z,70.32
2019-03-24T06:28:16.971Z,62.93
2019-03-24T06:30:45.427Z,71.20
2019-03-24T06:33:13.903Z,73.47
2019-03-24T06:35:42.734Z,71.70
2019-03-24T06:38:11.208Z,66.53
2019-03-24T06:40:39.659Z,66.50
2019-03-24T06:43:08.499Z,66.95
2019-03-24T06:45:37.287Z,66.60
2019-03-24T06:48:05.751Z,64.53
2019-03-24T06:50:34.235Z,61.28
2019-03-24T06:53:03.051Z,64.90
2019-03-24T06:55:31.789Z,65.17
2019-03-24T06:58:00.315Z,60.03
2019-03-24T07:00:28.797Z,60.90
2019-03-24T07:02:57.329Z,61.70
2019-03-24T07:05:25.799Z,58.87
2019-03-24T07:07:54.259Z,61.08
2019-03-24T07:10:22.731Z,65.35
2019-03-24T07:12:51.580Z,56.30
2019-03-24T07:15:20.275Z,59.60
2019-03-24T07:17:49.035Z,53.05
2019-03-24T07:20:17.935Z,50.10
2019-03-24T07:22:46.395Z,55.05
2019-03-24T07:25:14.866Z,58.83
2019-03-24T07:27:43.592Z,54.80
2019-03-24T07:30:12.803Z,57.13
2019-03-24T07:32:41.697Z,54.18
2019-03-24T07:35:10.342Z,57.00
2019-03-24T07:37:39.051Z,55.92
2019-03-24T07:40:09.428Z,59.25
2019-03-24T07:42:37.959Z,58.02
2019-03-24T07:45:08.306Z,55.52
2019-03-24T07:47:36.835Z,54.75
2019-03-24T07:50:08.511Z,52.78
2019-03-24T07:52:36.966Z,49.20
2019-03-24T07:55:06.988Z,48.75
2019-03-24T07:57:35.442Z,52.08
2019-03-24T08:00:05.260Z,53.73
2019-03-24T08:02:33.714Z,50.90
2019-03-24T08:05:02.547Z,51.33
2019-03-24T08:07:30.999Z,58.42
2019-03-24T08:09:59.471Z,58.78
2019-03-24T08:12:27.931Z,58.65
2019-03-24T08:14:56.411Z,58.90
2019-03-24T08:17:24.864Z,58.75
2019-03-24T08:19:53.339Z,58.20
2019-03-24T08:22:21.794Z,57.78
2019-03-24T08:24:50.644Z,58.25
2019-03-24T08:27:19.435Z,57.58
2019-03-24T08:29:48.227Z,57.27
2019-03-24T08:32:16.717Z,54.93
2019-03-24T08:34:45.499Z,53.95
2019-03-24T08:37:13.980Z,54.35
2019-03-24T08:39:42.511Z,57.20
2019-03-24T08:42:11.272Z,58.73
2019-03-24T08:44:40.063Z,56.42
2019-03-24T08:47:08.851Z,57.98
2019-03-24T08:49:37.651Z,54.77
2019-03-24T08:52:06.130Z,52.67
2019-03-24T08:54:34.924Z,52.55
2019-03-24T08:57:03.402Z,49.93
2019-03-24T08:59:31.856Z,50.83
2019-03-24T09:02:00.330Z,50.98
2019-03-24T09:04:29.074Z,47.53
2019-03-24T09:06:57.863Z,47.08
2019-03-24T09:09:26.315Z,46.25
2019-03-24T09:11:54.791Z,49.00
2019-03-24T09:14:23.532Z,49.42
2019-03-24T09:16:52.007Z,45.88
2019-03-24T09:19:20.803Z,50.92
2019-03-24T09:21:49.600Z,47.78
2019-03-24T09:24:18.063Z,47.75
2019-03-24T09:26:46.543Z,48.50
2019-03-24T09:29:14.995Z,46.18
2019-03-24T09:31:43.750Z,47.80
2019-03-24T09:34:12.539Z,45.38
2019-03-24T09:36:41.336Z,49.03
2019-03-24T09:39:10.130Z,44.80
2019-03-24T09:41:38.677Z,47.83
2019-03-24T09:44:07.132Z,49.70
2019-03-24T09:46:36.003Z,52.03
2019-03-24T09:49:04.458Z,56.18
2019-03-24T09:51:32.930Z,55.17
2019-03-24T09:54:01.660Z,57.13
2019-03-24T09:56:30.447Z,60.83
2019-03-24T09:58:58.907Z,61.33
2019-03-24T10:01:27.395Z,55.52
2019-03-24T10:03:55.923Z,57.27
2019-03-24T10:06:24.803Z,55.90
2019-03-24T10:08:53.603Z,56.68
2019-03-24T10:11:22.147Z,54.98
2019-03-24T10:13:50.976Z,56.48
2019-03-24T10:16:19.462Z,56.15
2019-03-24T10:18:47.919Z,54.20
2019-03-24T10:21:16.739Z,55.60
2019-03-24T10:23:45.218Z,52.43
2019-03-24T10:26:13.936Z,53.70
2019-03-24T10:28:42.411Z,54.00
2019-03-24T10:31:11.192Z,54.18
2019-03-24T10:33:39.984Z,53.00
2019-03-24T10:36:08.695Z,55.35
2019-03-24T10:38:37.167Z,58.78
2019-03-24T10:41:05.627Z,51.75
2019-03-24T10:43:34.365Z,54.33
2019-03-24T10:46:02.894Z,51.35
2019-03-24T10:48:33.949Z,52.30
2019-03-24T10:51:01.847Z,53.52
2019-03-24T10:53:30.635Z,48.05
2019-03-24T10:55:59.090Z,47.40
2019-03-24T10:58:27.569Z,46.70
2019-03-24T11:00:56.407Z,48.23
2019-03-24T11:03:24.950Z,47.75
2019-03-24T11:05:53.411Z,47.53
2019-03-24T11:08:21.891Z,48.68
2019-03-24T11:10:50.351Z,45.52
2019-03-24T11:13:18.831Z,47.58
2019-03-24T11:15:47.295Z,50.67
2019-03-24T11:18:15.842Z,51.37
2019-03-24T11:20:44.591Z,49.98
2019-03-24T11:23:13.388Z,51.18
2019-03-24T11:25:42.282Z,49.00
2019-03-24T11:28:10.755Z,49.00
2019-03-24T11:30:39.216Z,49.73
2019-03-24T11:33:07.686Z,49.40
2019-03-24T11:35:36.147Z,51.08
2019-03-24T11:38:04.920Z,49.23
2019-03-24T11:40:33.709Z,51.23
2019-03-24T11:43:02.188Z,50.28
2019-03-24T11:45:30.991Z,52.27
2019-03-24T11:47:59.451Z,49.23
2019-03-24T11:50:28.263Z,52.40
2019-03-24T11:52:56.738Z,50.35
2019-03-24T11:55:25.551Z,50.17
2019-03-24T11:58:05.071Z,49.30
2019-03-24T12:00:37.335Z,54.40
2019-03-24T12:03:07.360Z,47.78
2019-03-24T12:05:36.172Z,50.80
2019-03-24T12:08:05.475Z,49.70
2019-03-24T12:10:34.196Z,51.18
2019-03-24T12:13:03.055Z,49.15
2019-03-24T12:15:31.526Z,46.42
2019-03-24T12:18:00.059Z,46.88
2019-03-24T12:20:28.535Z,45.08
2019-03-24T12:22:56.990Z,49.77
2019-03-24T12:25:25.469Z,49.10
2019-03-24T12:27:54.280Z,49.63
2019-03-24T12:30:23.595Z,47.33
2019-03-24T12:32:52.480Z,52.67
2019-03-24T12:35:27.051Z,48.35
2019-03-24T12:40:23.526Z,49.10
2019-03-24T12:42:51.980Z,48.70
2019-03-24T12:45:39.792Z,50.00
2019-03-24T12:48:08.267Z,50.50
2019-03-24T12:50:36.824Z,52.55
2019-03-24T12:53:05.648Z,49.70
2019-03-24T12:55:35.463Z,50.10
2019-03-24T12:58:03.923Z,50.28
2019-03-24T13:00:34.272Z,48.42
2019-03-24T13:03:02.734Z,50.12
2019-03-24T13:05:31.287Z,51.48
2019-03-24T13:08:14.886Z,52.08
2019-03-24T13:10:44.383Z,50.92
2019-03-24T13:13:12.844Z,52.35
2019-03-24T13:15:56.432Z,50.80
2019-03-24T13:18:24.955Z,51.10
2019-03-24T13:20:53.511Z,50.80
2019-03-24T13:23:21.973Z,50.00
2019-03-24T13:25:50.821Z,54.38
2019-03-24T13:28:19.469Z,52.88
2019-03-24T13:30:48.015Z,52.58
2019-03-24T13:33:16.542Z,50.90
2019-03-24T13:35:45.311Z,48.73
2019-03-24T13:38:14.102Z,51.55
2019-03-24T13:40:42.902Z,53.05
2019-03-24T13:43:11.695Z,50.05
2019-03-24T13:45:40.592Z,50.17
2019-03-24T13:48:09.049Z,49.98
2019-03-24T13:50:37.525Z,48.80
2019-03-24T13:53:05.977Z,48.98
2019-03-24T13:55:34.727Z,49.25
2019-03-24T13:58:04.362Z,47.53
2019-03-24T14:00:32.889Z,52.40
2019-03-24T14:03:01.347Z,51.45
2019-03-24T14:05:29.837Z,50.60
2019-03-24T14:07:58.699Z,52.73
2019-03-24T14:10:27.493Z,48.87
2019-03-24T14:12:56.015Z,50.48
2019-03-24T14:15:24.493Z,52.35
2019-03-24T14:17:52.954Z,49.05
2019-03-24T14:20:21.438Z,48.90
2019-03-24T14:22:49.908Z,49.93
2019-03-24T14:25:18.811Z,49.53
2019-03-24T14:27:47.266Z,48.00
2019-03-24T14:30:16.563Z,48.55
2019-03-24T14:32:45.399Z,48.15
2019-03-24T14:35:13.929Z,45.58
2019-03-24T14:37:42.679Z,44.85
2019-03-24T14:40:11.203Z,46.90
2019-03-24T14:42:39.684Z,46.53
2019-03-24T14:45:08.679Z,47.58
2019-03-24T14:47:37.536Z,47.00
2019-03-24T14:50:07.643Z,47.85
2019-03-24T14:52:36.196Z,47.67
2019-03-24T14:55:06.276Z,47.50
2019-03-24T14:57:34.751Z,49.95
2019-03-24T15:00:04.122Z,47.95
2019-03-24T15:02:32.667Z,48.83
2019-03-24T15:05:01.127Z,50.28
2019-03-24T15:07:29.935Z,52.27
2019-03-24T15:09:58.819Z,49.18
2019-03-24T15:12:27.298Z,53.08
2019-03-24T15:14:55.822Z,55.83
2019-03-24T15:17:24.591Z,56.25
2019-03-24T15:19:53.382Z,56.53
2019-03-24T15:22:21.860Z,57.30
2019-03-24T15:24:50.579Z,59.30
2019-03-24T15:27:19.352Z,60.20
2019-03-24T15:29:47.812Z,54.70
2019-03-24T15:32:16.635Z,53.20
2019-03-24T15:34:45.532Z,55.00
2019-03-24T15:37:14.416Z,59.08
2019-03-24T15:39:43.131Z,56.25
2019-03-24T15:42:11.602Z,50.50
2019-03-24T15:44:40.391Z,46.23
2019-03-24T15:47:09.183Z,49.50
2019-03-24T15:49:37.976Z,49.67
2019-03-24T15:52:06.870Z,50.43
2019-03-24T15:54:35.582Z,49.75
2019-03-24T15:57:04.357Z,51.33
2019-03-24T15:59:33.148Z,52.67
2019-03-24T16:02:01.630Z,52.62
2019-03-24T16:04:30.088Z,53.50
2019-03-24T16:06:58.912Z,56.02
2019-03-24T16:09:27.439Z,50.78
2019-03-24T16:11:55.897Z,51.85
2019-03-24T16:14:24.366Z,52.15
2019-03-24T16:16:53.159Z,51.83
2019-03-24T16:19:21.682Z,51.77
2019-03-24T16:21:50.435Z,54.85
2019-03-24T16:24:18.907Z,53.58
2019-03-24T16:26:47.719Z,54.42
2019-03-24T16:29:16.512Z,54.38
2019-03-24T16:31:44.967Z,50.40
2019-03-24T16:34:13.443Z,51.00
2019-03-24T16:36:41.899Z,51.70
2019-03-24T16:39:10.662Z,50.15
2019-03-24T16:41:39.556Z,51.75
2019-03-24T16:44:08.038Z,50.35
2019-03-24T16:46:36.586Z,55.35
2019-03-24T16:49:05.162Z,51.08
2019-03-24T16:51:38.499Z,49.75
2019-03-24T16:54:04.136Z,51.88
2019-03-24T16:56:32.654Z,50.28
2019-03-24T16:59:01.134Z,50.12
2019-03-24T17:01:29.891Z,52.35
2019-03-24T17:03:58.690Z,49.40
2019-03-24T17:06:27.486Z,52.78
2019-03-24T17:08:56.036Z,55.95
2019-03-24T17:11:24.492Z,52.05
2019-03-24T17:13:53.247Z,52.43
2019-03-24T17:16:21.714Z,54.48
2019-03-24T17:18:50.258Z,53.90
2019-03-24T17:21:18.719Z,54.70
2019-03-24T17:23:47.499Z,52.67
2019-03-24T17:26:16.027Z,52.80
2019-03-24T17:28:46.863Z,52.98
2019-03-24T17:31:14.691Z,55.98
2019-03-24T17:33:43.242Z,50.92
2019-03-24T17:36:11.700Z,48.05
2019-03-24T17:38:40.455Z,48.35
2019-03-24T17:41:08.912Z,49.08
2019-03-24T17:43:37.393Z,51.42
2019-03-24T17:46:05.847Z,49.75
2019-03-24T17:48:34.608Z,46.33
2019-03-24T17:51:03.066Z,49.23
2019-03-24T17:53:31.543Z,50.28
2019-03-24T17:55:59.999Z,55.12
2019-03-24T17:58:28.759Z,57.75
2019-03-24T18:00:58.167Z,53.92
2019-03-24T18:03:26.699Z,56.42
2019-03-24T18:05:55.170Z,55.17
2019-03-24T18:08:23.626Z,56.23
2019-03-24T18:10:52.106Z,55.50
2019-03-24T18:13:20.562Z,56.63
2019-03-24T18:15:49.381Z,52.08
2019-03-24T18:18:17.841Z,56.33
2019-03-24T18:20:46.391Z,61.88
2019-03-24T18:23:14.854Z,56.15
2019-03-24T18:25:43.327Z,60.35
2019-03-24T18:28:12.114Z,58.20
2019-03-24T18:30:41.059Z,58.63
2019-03-24T18:33:09.911Z,55.38
2019-03-24T18:35:38.704Z,59.75
2019-03-24T18:38:07.491Z,62.55
2019-03-24T18:40:35.967Z,58.68
2019-03-24T18:43:04.494Z,60.80
2019-03-24T18:45:32.971Z,58.42
2019-03-24T18:48:01.428Z,63.33
2019-03-24T18:50:29.909Z,63.83
2019-03-24T18:52:58.719Z,71.22
2019-03-24T18:55:27.205Z,69.62
2019-03-24T18:57:55.730Z,69.00
2019-03-24T19:00:24.575Z,72.78
2019-03-24T19:02:53.035Z,60.52
2019-03-24T19:05:21.515Z,66.72
2019-03-24T19:07:50.227Z,58.95
2019-03-24T19:10:19.035Z,77.15
2019-03-24T19:12:47.827Z,81.10
2019-03-24T19:15:17.046Z,71.17
2019-03-24T19:17:45.572Z,73.80
2019-03-24T19:20:14.829Z,74.75
2019-03-24T19:22:43.619Z,61.30
2019-03-24T19:25:12.343Z,62.58
2019-03-24T19:27:40.798Z,68.70
2019-03-24T19:30:15.319Z,64.82
2019-03-24T19:35:37.466Z,65.90
2019-03-24T19:38:06.355Z,80.35
2019-03-24T19:40:34.832Z,71.82
2019-03-24T19:43:03.639Z,86.30
2019-03-24T19:45:32.535Z,78.80
2019-03-24T19:48:00.999Z,62.62
2019-03-24T19:50:29.551Z,68.55
2019-03-24T19:52:58.399Z,66.92
2019-03-24T19:55:26.879Z,70.15
2019-03-24T19:57:55.680Z,69.50
2019-03-24T20:00:24.229Z,64.55
2019-03-24T20:02:52.951Z,63.92
2019-03-24T20:05:21.424Z,62.85
2019-03-24T20:07:50.239Z,62.65
2019-03-24T20:10:18.780Z,60.95
2019-03-24T20:12:47.234Z,58.08
2019-03-24T20:15:15.930Z,53.30
2019-03-24T20:17:44.416Z,52.83
2019-03-24T20:20:12.958Z,51.00
2019-03-24T20:22:41.491Z,56.55
2019-03-24T20:25:10.183Z,52.55
2019-03-24T20:27:38.663Z,48.65
2019-03-24T20:30:11.771Z,50.50
2019-03-24T20:32:40.250Z,52.10
2019-03-24T20:35:09.347Z,54.83
2019-03-24T20:37:37.899Z,56.37
2019-03-24T20:40:07.813Z,53.00
2019-03-24T20:42:36.612Z,53.75
2019-03-24T20:45:09.155Z,49.13
2019-03-24T20:47:37.626Z,51.10
2019-03-24T20:50:07.895Z,53.52
2019-03-24T20:52:36.449Z,55.95
2019-03-24T20:55:08.411Z,54.93
2019-03-24T20:57:36.960Z,54.73
2019-03-24T21:00:07.637Z,54.50
2019-03-24T21:02:36.185Z,51.83
2019-03-24T21:05:06.060Z,57.03
2019-03-24T21:07:34.866Z,51.45
2019-03-24T21:10:04.191Z,47.60
2019-03-24T21:12:32.967Z,49.35
2019-03-24T21:15:01.769Z,51.77
2019-03-24T21:17:30.319Z,54.90
2019-03-24T21:19:58.866Z,50.80
2019-03-24T21:22:27.406Z,48.08
2019-03-24T21:24:56.219Z,41.42
2019-03-24T21:27:25.017Z,43.85
2019-03-24T21:29:53.539Z,46.42
2019-03-24T21:32:22.015Z,47.65
2019-03-24T21:34:50.475Z,44.77
2019-03-24T21:37:18.955Z,46.30
2019-03-24T21:39:47.410Z,45.98
2019-03-24T21:42:16.236Z,46.05
2019-03-24T21:44:44.696Z,42.10
2019-03-24T21:47:13.176Z,41.50
2019-03-24T21:49:41.703Z,43.95
2019-03-24T21:52:10.483Z,44.33
2019-03-24T21:54:39.277Z,44.48
2019-03-24T21:57:07.750Z,42.03
2019-03-24T21:59:36.213Z,39.67
2019-03-24T22:02:05.039Z,39.85
2019-03-24T22:04:34.898Z,42.30
2019-03-24T22:07:03.643Z,41.10
2019-03-24T22:09:32.099Z,42.35
2019-03-24T22:12:00.580Z,44.48
2019-03-24T22:14:29.307Z,38.98
2019-03-24T22:16:57.768Z,36.77
2019-03-24T22:19:26.254Z,37.95
2019-03-24T22:21:54.989Z,39.88
2019-03-24T22:24:23.767Z,38.00
2019-03-24T22:26:52.221Z,35.88
2019-03-24T22:29:20.700Z,37.10
2019-03-24T22:31:49.531Z,41.02
2019-03-24T22:34:18.007Z,38.23
2019-03-24T22:36:46.465Z,38.08
2019-03-24T22:39:15.291Z,41.02
2019-03-24T22:41:44.083Z,39.98
2019-03-24T22:44:12.979Z,40.88
2019-03-24T22:46:41.439Z,38.85
2019-03-24T22:49:09.918Z,36.42
2019-03-24T22:51:38.748Z,40.40
2019-03-24T22:54:07.219Z,43.45
2019-03-24T22:56:35.677Z,30.50
2019-03-24T22:59:04.512Z,32.80
2019-03-24T23:01:33.406Z,32.93
2019-03-24T23:04:02.252Z,36.20
2019-03-24T23:06:30.708Z,40.17
2019-03-24T23:08:59.183Z,38.53
2019-03-24T23:11:27.814Z,41.00
2019-03-24T23:13:56.653Z,32.28
2019-03-24T23:16:25.115Z,32.53
2019-03-24T23:18:53.586Z,27.90
2019-03-24T23:21:22.042Z,28.83
2019-03-24T23:23:50.803Z,28.23
2019-03-24T23:26:19.263Z,33.38
2019-03-24T23:28:48.075Z,27.80
2019-03-24T23:31:16.791Z,38.25
2019-03-24T23:33:45.352Z,48.95
2019-03-24T23:36:14.151Z,31.42
2019-03-24T23:38:42.946Z,46.18
2019-03-24T23:41:11.740Z,40.75
2019-03-24T23:43:40.291Z,49.53
2019-03-24T23:46:09.115Z,41.95
2019-03-24T23:48:37.916Z,43.35
2019-03-24T23:51:06.380Z,42.38
2019-03-24T23:53:34.923Z,24.52
2019-03-24T23:56:03.375Z,24.43
2019-03-24T23:58:40.669Z,37.23
